Terminal Aerodrome Forecast
Issued by NWS Twin Cities, MN

Home | Current Version | Previous Version | Text Only | Print | Product List | Glossary On
Versions: 1 2 3 4 5 6 7 8 9 10 11 12 13 14 15
000
FTUS43 KMPX 252300 RRA
TAFSTC
TAF
KSTC 252339Z 2600/2624 36004KT 6SM -SHSN BR OVC014
      TEMPO 2602/2606 3SM -SN OVC008
     FM260600 36008KT 6SM -SHSN OVC008
     FM261200 35010KT P6SM OVC009
     FM261800 34009KT P6SM OVC014=

USA.gov is the U.S. government's official web portal to all federal, state and local government web resources and services.